Time;durP1;ratioP1;P1;durP2;ratioP2;P2;SDS_P1;SDS_P2;PMS_P1;PMS_P2;Temp;Humidity;BMP_temperature;BMP_pressure;BME280_temperature;BME280_humidity;BME280_pressure;Samples;Min_cycle;Max_cycle;Signal;HPM_P1;HPM_P2
2021/06/27 00:00:34;;;;;;;22.77;7.60;;;;;;;18.36;89.05;100648.19;1905217;75;21360;-67
2021/06/27 00:03:03;;;;;;;16.70;6.22;;;;;;;18.35;89.09;100643.81;1905323;74;21025;-66
2021/06/27 00:05:33;;;;;;;15.05;7.00;;;;;;;18.34;89.08;100643.45;1905253;75;21544;-67
2021/06/27 00:08:03;;;;;;;14.80;6.40;;;;;;;18.35;89.06;100631.81;1905202;74;21536;-66
2021/06/27 00:10:34;;;;;;;18.98;6.45;;;;;;;18.34;89.07;100634.13;1905262;75;21032;-66
2021/06/27 00:13:05;;;;;;;24.18;6.25;;;;;;;18.34;89.20;100634.13;1905158;75;21060;-67
2021/06/27 00:15:46;;;;;;;15.95;6.10;;;;;;;18.38;89.40;100643.59;1905341;75;21036;-66
2021/06/27 00:18:17;;;;;;;12.25;5.05;;;;;;;18.42;89.39;100642.40;1905209;75;21068;-67
2021/06/27 00:20:48;;;;;;;8.80;4.60;;;;;;;18.40;89.25;100640.33;1905337;75;21130;-67
2021/06/27 00:23:19;;;;;;;12.40;5.60;;;;;;;18.37;89.13;100641.91;1905245;74;21028;-66
2021/06/27 00:25:49;;;;;;;12.35;5.45;;;;;;;18.32;89.02;100644.90;1905121;75;21201;-66
2021/06/27 00:28:20;;;;;;;17.82;5.25;;;;;;;18.28;89.04;100646.58;1905247;74;21076;-65
2021/06/27 00:30:51;;;;;;;9.60;4.72;;;;;;;18.22;89.06;100649.67;1905355;75;21024;-65
2021/06/27 00:33:21;;;;;;;21.60;6.15;;;;;;;18.19;89.04;100647.25;1905229;75;21109;-65
2021/06/27 00:35:51;;;;;;;17.02;5.67;;;;;;;18.14;89.07;100642.23;1905349;74;21036;-66
2021/06/27 00:38:20;;;;;;;12.73;6.05;;;;;;;18.11;89.15;100645.11;1905136;75;21084;-66
2021/06/27 00:40:49;;;;;;;15.78;6.30;;;;;;;18.11;89.20;100643.33;1905243;75;21008;-66
2021/06/27 00:43:17;;;;;;;20.92;7.25;;;;;;;18.10;89.30;100646.94;1905350;75;21113;-66
2021/06/27 00:45:46;;;;;;;22.87;6.72;;;;;;;18.12;89.24;100654.34;1905194;75;21040;-66
2021/06/27 00:48:15;;;;;;;15.18;6.47;;;;;;;18.13;89.20;100653.87;1905301;75;21082;-66
2021/06/27 00:50:50;;;;;;;19.95;6.90;;;;;;;18.14;89.17;100652.89;1905265;75;21013;-66
2021/06/27 00:53:20;;;;;;;17.98;7.22;;;;;;;18.16;89.11;100658.96;1905191;75;21025;-66
2021/06/27 00:55:54;;;;;;;17.12;7.05;;;;;;;18.15;89.07;100662.61;1905329;75;21100;-66
2021/06/27 00:58:20;;;;;;;17.07;7.15;;;;;;;18.14;89.08;100660.89;1904986;74;21576;-66
2021/06/27 01:00:49;;;;;;;19.73;7.03;;;;;;;18.16;89.18;100658.13;1905152;75;21064;-66
2021/06/27 01:03:17;;;;;;;13.38;5.97;;;;;;;18.16;89.21;100663.45;1905143;74;21482;-66
2021/06/27 01:05:46;;;;;;;27.20;7.33;;;;;;;18.17;89.26;100659.80;1905186;75;21008;-66
2021/06/27 01:08:16;;;;;;;24.50;7.08;;;;;;;18.17;89.32;100663.80;1905219;75;21463;-65
2021/06/27 01:10:47;;;;;;;17.90;5.95;;;;;;;18.18;89.31;100666.85;1905239;75;21025;-66
2021/06/27 01:13:17;;;;;;;24.02;6.78;;;;;;;18.16;89.21;100657.63;1905237;75;21032;-66
2021/06/27 01:15:46;;;;;;;20.17;6.70;;;;;;;18.14;89.11;100668.39;1905130;74;21032;-66
2021/06/27 01:18:15;;;;;;;18.17;5.67;;;;;;;18.13;89.08;100673.38;1905183;75;21029;-66
2021/06/27 01:20:44;;;;;;;18.70;7.80;;;;;;;18.12;89.13;100678.31;1911117;74;21067;-66
2021/06/27 01:23:16;;;;;;;21.50;7.08;;;;;;;18.12;89.28;100674.32;1924597;74;21028;-66
2021/06/27 01:25:47;;;;;;;13.00;6.10;;;;;;;18.16;89.45;100674.11;1924632;74;21020;-66
2021/06/27 01:28:17;;;;;;;18.00;6.55;;;;;;;18.16;89.48;100679.44;1924479;74;21075;-67
2021/06/27 01:30:46;;;;;;;14.05;5.45;;;;;;;18.17;89.44;100691.78;1924602;74;21617;-67
2021/06/27 01:33:18;;;;;;;19.35;6.67;;;;;;;18.14;89.41;100693.70;1924579;74;21028;-67
2021/06/27 01:35:47;;;;;;;17.12;6.25;;;;;;;18.12;89.38;100695.63;1924738;74;21516;-67
2021/06/27 01:38:18;;;;;;;14.35;6.55;;;;;;;18.08;89.37;100694.16;1924548;74;21528;-67
2021/06/27 01:40:48;;;;;;;13.25;6.30;;;;;;;18.06;89.33;100691.24;1924524;74;21024;-67
2021/06/27 01:43:19;;;;;;;21.97;6.22;;;;;;;18.03;89.26;100694.96;1924603;74;21109;-67
2021/06/27 01:45:51;;;;;;;18.35;7.35;;;;;;;18.02;89.24;100701.27;1924571;74;21035;-67
2021/06/27 01:48:20;;;;;;;19.15;8.55;;;;;;;18.01;89.21;100706.20;1924358;74;21545;-67
2021/06/27 01:50:52;;;;;;;15.78;6.58;;;;;;;17.99;89.17;100708.13;1924713;74;21161;-67
2021/06/27 01:53:23;;;;;;;15.00;7.05;;;;;;;17.97;89.11;100716.72;1924625;74;21016;-67
2021/06/27 01:56:15;;;;;;;20.97;8.13;;;;;;;17.96;89.10;100716.33;1924575;74;21086;-67
2021/06/27 01:58:24;;;;;;;14.47;6.55;;;;;;;17.97;89.12;100716.72;1913414;74;21036;-67
2021/06/27 02:00:53;;;;;;;18.55;7.70;;;;;;;17.98;89.13;100710.91;1924691;74;21079;-67
2021/06/27 02:03:21;;;;;;;16.70;7.70;;;;;;;17.99;89.13;100708.63;1924853;74;21028;-67
2021/06/27 02:05:50;;;;;;;20.70;7.90;;;;;;;17.99;89.19;100698.81;1924598;74;21035;-68
2021/06/27 02:08:19;;;;;;;15.80;7.92;;;;;;;18.02;89.24;100700.39;1924596;74;21176;-67
2021/06/27 02:10:48;;;;;;;17.17;6.95;;;;;;;18.05;89.32;100702.36;1924659;74;21043;-67
2021/06/27 02:13:16;;;;;;;16.55;7.72;;;;;;;18.11;89.42;100695.28;1924505;74;21007;-67
2021/06/27 02:15:45;;;;;;;13.50;7.42;;;;;;;18.21;89.54;100706.62;1924552;74;21056;-66
2021/06/27 02:18:22;;;;;;;14.63;7.10;;;;;;;18.32;89.70;100714.20;1924549;74;21028;-66
2021/06/27 02:20:51;;;;;;;18.67;6.33;;;;;;;18.46;89.81;100715.00;1923637;74;21039;-67
2021/06/27 02:23:20;;;;;;;12.88;6.00;;;;;;;18.60;89.90;100719.34;1924605;74;21548;-66
2021/06/27 02:25:49;;;;;;;12.73;6.08;;;;;;;18.71;89.93;100723.41;1924555;74;21881;-66
2021/06/27 02:28:18;;;;;;;33.28;19.23;;;;;;;18.82;89.85;100731.98;1924582;74;21028;-66
2021/06/27 02:30:47;;;;;;;31.97;16.23;;;;;;;18.93;89.78;100732.05;1924475;74;21109;-66
2021/06/27 02:33:17;;;;;;;22.55;10.85;;;;;;;19.04;89.76;100732.58;1924568;74;21571;-66
2021/06/27 02:35:46;;;;;;;22.70;9.23;;;;;;;19.19;89.74;100732.75;1924546;74;21500;-66
2021/06/27 02:38:15;;;;;;;12.45;6.22;;;;;;;19.32;89.71;100725.16;1924536;74;21486;-65
2021/06/27 02:40:44;;;;;;;15.72;5.90;;;;;;;19.47;89.69;100726.16;1924555;74;21133;-66
2021/06/27 02:43:17;;;;;;;14.45;5.65;;;;;;;19.60;89.59;100726.06;1924467;74;21490;-66
2021/06/27 02:45:47;;;;;;;18.30;6.25;;;;;;;19.72;89.46;100728.78;1924591;74;21465;-66
2021/06/27 02:48:16;;;;;;;10.95;5.37;;;;;;;19.75;89.19;100729.39;1924682;74;21035;-66
2021/06/27 02:50:46;;;;;;;14.98;5.78;;;;;;;19.81;88.61;100720.08;1924566;74;21097;-66
2021/06/27 02:53:15;;;;;;;17.70;5.92;;;;;;;19.81;88.19;100713.41;1924558;74;21093;-66
2021/06/27 02:55:44;;;;;;;13.95;6.10;;;;;;;19.74;87.87;100712.17;1924584;74;21000;-67
2021/06/27 02:58:13;;;;;;;11.35;5.47;;;;;;;19.76;87.68;100715.58;1924525;74;21474;-66
2021/06/27 03:00:42;;;;;;;13.53;5.35;;;;;;;19.96;87.90;100712.19;1924553;74;21528;-66
2021/06/27 03:03:11;;;;;;;14.10;5.58;;;;;;;20.15;88.09;100713.39;1924556;74;21109;-66
2021/06/27 03:05:40;;;;;;;17.77;5.92;;;;;;;20.22;87.93;100711.44;1924554;74;21067;-66
2021/06/27 03:08:09;;;;;;;17.02;5.50;;;;;;;20.33;87.69;100713.25;1924503;74;21109;-67
2021/06/27 03:10:37;;;;;;;14.05;5.15;;;;;;;20.43;87.42;100716.86;1924527;74;21494;-67
2021/06/27 03:13:06;;;;;;;12.40;5.80;;;;;;;20.56;86.98;100713.20;1924514;74;21048;-65
2021/06/27 03:15:36;;;;;;;13.00;5.55;;;;;;;20.71;86.58;100714.67;1924552;74;21004;-66
2021/06/27 03:18:05;;;;;;;16.62;6.03;;;;;;;20.86;86.38;100715.70;1924514;74;21423;-67
2021/06/27 03:20:33;;;;;;;21.73;6.53;;;;;;;20.89;86.21;100708.27;1924472;74;21518;-68
2021/06/27 03:23:02;;;;;;;12.95;6.12;;;;;;;20.88;85.97;100706.59;1912094;74;21072;-67
2021/06/27 03:25:31;;;;;;;13.10;6.22;;;;;;;20.87;85.78;100709.39;1905247;75;21083;-67
2021/06/27 03:28:00;;;;;;;16.02;6.42;;;;;;;20.87;85.57;100713.41;1905351;74;21079;-66
2021/06/27 03:30:29;;;;;;;18.67;6.67;;;;;;;20.91;85.47;100712.16;1905428;74;21121;-67
2021/06/27 03:32:58;;;;;;;11.78;6.37;;;;;;;21.01;85.59;100713.95;1905331;75;21135;-67
2021/06/27 03:35:27;;;;;;;69.10;22.10;;;;;;;21.12;85.53;100710.38;1905198;74;21048;-68
2021/06/27 03:38:23;;;;;;;16.37;6.65;;;;;;;21.27;85.46;100723.45;1905223;75;21600;-67
2021/06/27 03:40:26;;;;;;;14.83;5.80;;;;;;;21.41;85.31;100725.79;1893108;75;21121;-68
2021/06/27 03:42:59;;;;;;;12.23;5.62;;;;;;;21.53;85.25;100727.46;1905307;74;21528;-67
2021/06/27 03:45:27;;;;;;;13.98;6.33;;;;;;;21.63;84.94;100732.03;1905246;74;21013;-67
2021/06/27 03:47:56;;;;;;;16.12;5.75;;;;;;;21.68;84.48;100734.67;1905140;75;21479;-67
2021/06/27 03:50:25;;;;;;;11.43;5.08;;;;;;;21.69;83.94;100740.88;1905269;75;21533;-67
2021/06/27 03:52:54;;;;;;;14.95;6.08;;;;;;;21.70;83.64;100736.73;1905240;75;21467;-67
2021/06/27 03:55:23;;;;;;;13.72;5.22;;;;;;;21.77;83.66;100736.56;1905270;75;21064;-67
2021/06/27 03:57:52;;;;;;;12.25;5.05;;;;;;;21.91;83.42;100740.73;1905243;75;21138;-67
2021/06/27 04:00:21;;;;;;;10.35;5.10;;;;;;;22.09;83.36;100743.62;1905101;75;21127;-67
2021/06/27 04:02:49;;;;;;;18.57;5.45;;;;;;;22.25;83.11;100740.95;1905273;75;21103;-66
2021/06/27 04:05:19;;;;;;;10.50;5.53;;;;;;;22.42;82.91;100744.34;1905091;75;21133;-66
2021/06/27 04:07:47;;;;;;;10.28;5.47;;;;;;;22.58;82.83;100742.48;1905274;75;21001;-66
2021/06/27 04:10:16;;;;;;;10.85;5.22;;;;;;;22.79;82.56;100737.00;1905295;75;21069;-66
2021/06/27 04:12:45;;;;;;;9.00;5.10;;;;;;;23.01;82.08;100735.05;1905220;74;21096;-67
2021/06/27 04:15:13;;;;;;;9.83;5.42;;;;;;;23.25;81.48;100736.00;1905210;75;21080;-66
2021/06/27 04:17:42;;;;;;;15.38;5.80;;;;;;;23.44;80.79;100731.97;1905256;75;21121;-66
2021/06/27 04:20:12;;;;;;;8.05;4.85;;;;;;;23.59;79.95;100738.20;1905573;75;21044;-66
2021/06/27 04:22:41;;;;;;;11.57;4.85;;;;;;;23.76;79.54;100726.72;1905245;74;21068;-67
2021/06/27 04:25:11;;;;;;;10.25;5.40;;;;;;;23.93;78.90;100732.36;1905247;74;21036;-66
2021/06/27 04:27:40;;;;;;;9.68;5.60;;;;;;;24.03;78.47;100721.92;1905189;75;21420;-67
2021/06/27 04:30:10;;;;;;;9.95;5.35;;;;;;;24.21;77.88;100721.97;1905213;75;21056;-67
2021/06/27 04:32:38;;;;;;;9.53;5.83;;;;;;;24.47;77.47;100710.02;1905281;75;21004;-65
2021/06/27 04:35:08;;;;;;;14.03;5.42;;;;;;;24.80;77.30;100710.88;1905266;74;21028;-65
2021/06/27 04:37:37;;;;;;;12.75;5.67;;;;;;;25.15;76.87;100708.67;1905231;74;21028;-65
2021/06/27 04:40:07;;;;;;;11.18;5.33;;;;;;;25.49;76.36;100705.75;1905096;74;21004;-66
2021/06/27 04:42:35;;;;;;;14.35;5.78;;;;;;;25.72;75.36;100705.56;1905196;75;21114;-66
2021/06/27 04:45:06;;;;;;;8.70;4.70;;;;;;;25.87;74.20;100707.67;1905204;75;21110;-66
2021/06/27 04:47:36;;;;;;;10.35;5.05;;;;;;;26.03;73.50;100703.75;1905322;75;21034;-65
2021/06/27 04:50:06;;;;;;;9.00;4.75;;;;;;;26.19;72.84;100697.55;1905334;75;21423;-65
2021/06/27 04:52:36;;;;;;;9.23;5.12;;;;;;;26.46;72.13;100695.63;1905220;75;21010;-66
2021/06/27 04:55:07;;;;;;;11.40;4.95;;;;;;;26.64;71.20;100692.84;1905236;75;21557;-66
2021/06/27 04:57:36;;;;;;;11.33;4.80;;;;;;;26.83;70.21;100696.56;1905348;75;21033;-65
2021/06/27 05:00:07;;;;;;;10.58;4.70;;;;;;;26.99;69.62;100697.09;1905174;75;21524;-66
2021/06/27 05:02:36;;;;;;;10.05;4.80;;;;;;;27.04;68.65;100693.88;1905239;75;21114;-67
2021/06/27 05:05:06;;;;;;;9.10;5.17;;;;;;;27.23;68.78;100693.55;1905162;74;21102;-66
2021/06/27 05:07:35;;;;;;;9.75;4.80;;;;;;;27.48;68.15;100694.89;1905270;75;21028;-66
2021/06/27 05:10:05;;;;;;;9.78;4.67;;;;;;;27.73;68.19;100695.69;1905320;75;21090;-66
2021/06/27 05:12:34;;;;;;;8.78;4.10;;;;;;;28.13;67.50;100700.66;1905231;75;21000;-67
2021/06/27 05:15:03;;;;;;;6.95;4.67;;;;;;;28.29;65.95;100702.43;1905226;75;21143;-66
2021/06/27 05:17:32;;;;;;;10.18;4.92;;;;;;;28.45;65.45;100694.22;1905194;75;21482;-66
2021/06/27 05:20:01;;;;;;;11.48;4.15;;;;;;;28.82;64.82;100687.23;1905209;75;21125;-66
2021/06/27 05:22:29;;;;;;;10.03;4.30;;;;;;;29.07;62.89;100688.42;1905291;75;21032;-65
2021/06/27 05:24:59;;;;;;;10.85;4.78;;;;;;;29.26;61.97;100686.56;1921760;74;21071;-66
2021/06/27 05:27:28;;;;;;;9.38;5.20;;;;;;;28.95;61.72;100691.22;1924785;74;21473;-66
2021/06/27 05:29:57;;;;;;;9.30;6.12;;;;;;;28.50;61.51;100693.19;1924521;74;21110;-67
2021/06/27 05:32:26;;;;;;;8.23;5.28;;;;;;;27.90;61.82;100682.98;1924589;74;21023;-66
2021/06/27 05:34:55;;;;;;;9.20;5.85;;;;;;;27.43;62.76;100685.13;1924610;74;21055;-66
2021/06/27 05:37:24;;;;;;;10.28;5.87;;;;;;;26.95;63.61;100672.78;1924815;74;21000;-66
2021/06/27 05:39:52;;;;;;;8.98;5.80;;;;;;;26.56;64.50;100674.23;1924568;74;21470;-66
2021/06/27 05:42:21;;;;;;;9.55;5.67;;;;;;;26.49;65.42;100672.36;1924569;74;21152;-67
2021/06/27 05:44:50;;;;;;;12.58;5.50;;;;;;;26.72;64.90;100668.53;1924418;74;21071;-66
2021/06/27 05:47:19;;;;;;;8.63;5.15;;;;;;;26.77;64.44;100668.88;1924623;74;21153;-66
2021/06/27 05:49:47;;;;;;;7.75;4.85;;;;;;;26.63;65.08;100680.34;1924799;74;21036;-66
2021/06/27 05:52:16;;;;;;;10.23;5.08;;;;;;;27.04;65.07;100682.58;1924612;74;21004;-65
2021/06/27 05:54:45;;;;;;;9.83;4.08;;;;;;;27.36;64.85;100674.65;1924576;74;21117;-64
2021/06/27 05:57:14;;;;;;;10.50;5.10;;;;;;;27.46;64.12;100679.34;1924470;74;21051;-65
2021/06/27 05:59:43;;;;;;;5.12;4.03;;;;;;;27.50;64.25;100671.22;1924556;74;21122;-65
2021/06/27 06:02:12;;;;;;;8.18;4.87;;;;;;;27.52;63.12;100682.73;1924593;74;21594;-64
2021/06/27 06:04:40;;;;;;;6.53;4.90;;;;;;;27.23;63.41;100685.44;1924595;74;21039;-64
2021/06/27 06:07:09;;;;;;;9.45;4.55;;;;;;;26.94;64.02;100693.53;1924775;74;21039;-64
2021/06/27 06:09:38;;;;;;;7.22;5.35;;;;;;;26.75;64.70;100691.17;1924462;74;21020;-65
2021/06/27 06:12:08;;;;;;;9.90;5.85;;;;;;;26.65;65.15;100689.98;1924537;74;21024;-67
2021/06/27 06:14:37;;;;;;;9.48;4.35;;;;;;;26.79;65.17;100689.81;1924677;74;21028;-65
2021/06/27 06:17:06;;;;;;;7.15;4.60;;;;;;;27.20;63.92;100690.34;1924689;74;21007;-66
2021/06/27 06:19:35;;;;;;;7.90;4.75;;;;;;;27.78;63.18;100689.25;1924676;74;21031;-65
2021/06/27 06:22:04;;;;;;;9.98;4.50;;;;;;;28.16;61.46;100692.69;1924423;74;21032;-66
2021/06/27 06:24:32;;;;;;;8.18;4.60;;;;;;;28.37;59.11;100689.36;1917815;74;21103;-66
2021/06/27 06:27:01;;;;;;;8.00;5.08;;;;;;;28.65;59.16;100682.45;1905211;75;21072;-66
2021/06/27 06:29:30;;;;;;;7.15;4.60;;;;;;;29.05;58.64;100684.53;1905158;75;21544;-66
2021/06/27 06:31:58;;;;;;;8.70;3.55;;;;;;;29.51;58.00;100689.55;1905387;75;21106;-66
2021/06/27 06:34:27;;;;;;;7.83;4.05;;;;;;;30.03;57.28;100690.02;1905078;75;21072;-68
2021/06/27 06:36:56;;;;;;;11.22;4.33;;;;;;;30.37;56.02;100690.77;1905104;74;21067;-67
2021/06/27 06:39:24;;;;;;;6.92;3.62;;;;;;;30.77;55.05;100683.58;1905252;74;20992;-66
2021/06/27 06:41:53;;;;;;;9.13;3.85;;;;;;;30.58;54.72;100697.27;1905090;75;21072;-66
2021/06/27 06:44:22;;;;;;;6.42;4.03;;;;;;;30.05;54.29;100688.48;1905192;75;21165;-66
2021/06/27 06:46:51;;;;;;;7.40;3.42;;;;;;;29.73;55.02;100686.43;1905156;75;21040;-65
2021/06/27 06:49:20;;;;;;;8.78;3.50;;;;;;;29.96;54.50;100691.28;1905049;75;21440;-66
2021/06/27 06:51:49;;;;;;;3.17;2.87;;;;;;;30.31;53.53;100690.16;1905304;75;21134;-66
2021/06/27 06:54:18;;;;;;;6.75;2.90;;;;;;;30.39;51.84;100692.77;1905271;75;21109;-66
2021/06/27 06:56:47;;;;;;;6.20;2.83;;;;;;;30.49;52.16;100698.41;1905135;75;21052;-67
2021/06/27 06:59:16;;;;;;;9.18;3.30;;;;;;;30.73;51.82;100693.99;1905099;75;21048;-66
2021/06/27 07:01:45;;;;;;;5.83;2.72;;;;;;;30.92;49.95;100691.70;1905030;74;21529;-66
2021/06/27 07:04:13;;;;;;;5.80;2.70;;;;;;;30.79;49.69;100695.92;1905217;75;21064;-66
2021/06/27 07:06:43;;;;;;;4.55;3.00;;;;;;;31.02;49.98;100696.80;1901593;74;21091;-66
2021/06/27 07:09:12;;;;;;;6.83;3.05;;;;;;;30.99;48.29;100700.76;1872635;76;21104;-64
2021/06/27 07:11:41;;;;;;;8.03;3.02;;;;;;;31.01;49.19;100698.68;1872659;77;21141;-64
2021/06/27 07:14:10;;;;;;;9.88;3.15;;;;;;;31.24;49.51;100692.17;1872573;77;21145;-65
2021/06/27 07:16:39;;;;;;;9.60;2.62;;;;;;;31.55;49.49;100691.27;1872706;76;21478;-65
2021/06/27 07:19:08;;;;;;;6.30;2.67;;;;;;;31.86;49.11;100694.08;1872879;77;21040;-65
2021/06/27 07:21:39;;;;;;;5.30;2.83;;;;;;;32.24;48.47;100704.56;1872706;77;21056;-65
2021/06/27 07:24:08;;;;;;;6.50;2.80;;;;;;;32.32;46.37;100705.73;1872611;77;21622;-66
2021/06/27 07:26:37;;;;;;;4.45;2.62;;;;;;;32.46;45.99;100715.31;1872560;76;21148;-67
2021/06/27 07:29:05;;;;;;;7.10;3.15;;;;;;;32.63;46.33;100715.30;1872746;77;21607;-66
2021/06/27 07:31:34;;;;;;;6.35;2.83;;;;;;;32.83;46.13;100715.84;1872640;77;21047;-66
2021/06/27 07:34:03;;;;;;;6.00;3.35;;;;;;;32.86;45.22;100719.53;1872873;77;21249;-65
2021/06/27 07:36:31;;;;;;;5.97;2.83;;;;;;;32.60;45.79;100725.78;1872665;75;21056;-66
2021/06/27 07:39:00;;;;;;;6.60;3.22;;;;;;;32.52;45.47;100718.60;1872664;77;21081;-65
2021/06/27 07:41:29;;;;;;;7.08;2.70;;;;;;;32.26;45.95;100727.00;1872489;77;21064;-65
2021/06/27 07:43:57;;;;;;;7.90;2.83;;;;;;;32.49;45.66;100725.28;1872752;77;21126;-65
2021/06/27 07:46:26;;;;;;;5.37;2.90;;;;;;;32.11;45.29;100723.55;1872662;77;21055;-65
2021/06/27 07:48:55;;;;;;;6.62;2.85;;;;;;;31.77;45.49;100721.67;1872617;77;21063;-66
2021/06/27 07:51:24;;;;;;;9.70;2.90;;;;;;;31.31;46.33;100720.27;1872597;77;21052;-66
2021/06/27 07:53:53;;;;;;;5.85;2.90;;;;;;;31.09;47.18;100718.92;1872539;76;21546;-66
2021/06/27 07:56:21;;;;;;;6.17;2.83;;;;;;;31.43;47.30;100713.26;1872625;76;21060;-66
2021/06/27 07:58:50;;;;;;;8.15;3.30;;;;;;;31.62;45.85;100714.98;1872635;76;21165;-66
2021/06/27 08:01:19;;;;;;;6.53;2.72;;;;;;;31.74;46.05;100716.95;1872587;77;21095;-66
2021/06/27 08:03:48;;;;;;;5.83;2.65;;;;;;;31.99;45.92;100714.27;1872626;77;21553;-66
2021/06/27 08:06:17;;;;;;;4.87;2.83;;;;;;;32.43;45.77;100713.02;1872749;76;21110;-66
2021/06/27 08:08:45;;;;;;;7.87;3.20;;;;;;;32.66;44.39;100712.67;1872833;76;21492;-67
2021/06/27 08:11:14;;;;;;;7.00;3.10;;;;;;;32.91;44.22;100714.30;1872756;76;21046;-67
2021/06/27 08:13:43;;;;;;;4.75;2.58;;;;;;;33.02;43.84;100709.59;1872765;77;21169;-66
2021/06/27 08:16:12;;;;;;;7.10;3.45;;;;;;;33.23;43.49;100721.37;1872759;76;21044;-65
2021/06/27 08:18:41;;;;;;;6.87;3.10;;;;;;;33.43;43.45;100730.39;1872668;77;21157;-65
2021/06/27 08:21:09;;;;;;;3.70;2.20;;;;;;;33.45;42.47;100728.28;1872920;77;21040;-65
2021/06/27 08:23:38;;;;;;;9.98;2.67;;;;;;;33.35;42.00;100729.76;1872738;77;21048;-65
2021/06/27 08:26:07;;;;;;;4.62;2.30;;;;;;;33.25;42.23;100728.29;1872669;76;21162;-65
2021/06/27 08:28:36;;;;;;;4.67;2.70;;;;;;;33.35;41.83;100737.44;1872678;76;21064;-65
2021/06/27 08:31:04;;;;;;;10.03;3.02;;;;;;;33.40;41.83;100736.80;1872749;77;21463;-66
2021/06/27 08:33:33;;;;;;;7.72;3.15;;;;;;;33.32;41.32;100731.03;1872613;77;21145;-66
2021/06/27 08:36:02;;;;;;;7.58;2.80;;;;;;;33.24;41.35;100727.99;1872744;77;21439;-65
2021/06/27 08:38:31;;;;;;;6.25;2.27;;;;;;;33.19;41.74;100725.58;1872812;76;21008;-66
2021/06/27 08:41:00;;;;;;;6.60;2.60;;;;;;;33.26;41.96;100734.61;1872949;77;21106;-68
2021/06/27 08:43:34;;;;;;;6.58;2.95;;;;;;;33.15;41.83;100733.88;1872984;76;21135;-67
2021/06/27 08:46:08;;;;;;;7.85;3.40;;;;;;;33.15;41.83;100733.88;1872772;77;21237;-68
2021/06/27 08:48:41;;;;;;;7.50;3.25;;;;;;;33.15;42.13;100749.70;1872758;76;21004;-67
2021/06/27 08:51:10;;;;;;;8.08;2.92;;;;;;;32.96;42.58;100751.84;1872800;76;21028;-67
2021/06/27 08:53:41;;;;;;;8.28;3.25;;;;;;;32.70;43.08;100743.92;1872760;77;21443;-68
2021/06/27 08:56:11;;;;;;;5.85;2.92;;;;;;;32.45;43.44;100751.27;1872802;77;21028;-68
2021/06/27 08:58:47;;;;;;;7.47;2.85;;;;;;;32.26;44.04;100744.70;1872878;76;21486;-68
2021/06/27 09:01:19;;;;;;;5.40;3.35;;;;;;;32.49;43.79;100759.88;1872751;77;21064;-68
2021/06/27 09:03:49;;;;;;;5.60;3.23;;;;;;;32.83;43.88;100755.39;1872983;77;21043;-68
2021/06/27 09:06:29;;;;;;;9.18;3.30;;;;;;;32.89;43.71;100758.14;1873061;77;21106;-69
2021/06/27 09:09:19;;;;;;;7.90;2.92;;;;;;;32.78;43.50;100748.38;1862082;76;21028;-69
2021/06/27 09:12:06;;;;;;;7.05;3.17;;;;;;;32.24;43.41;100749.52;1872704;76;21036;-69
2021/06/27 09:14:40;;;;;;;11.12;3.08;;;;;;;32.66;44.11;100749.48;1872811;75;21068;-68
2021/06/27 09:17:17;;;;;;;7.67;2.85;;;;;;;32.86;43.59;100748.16;1872618;77;21111;-68
2021/06/27 09:19:55;;;;;;;11.38;3.60;;;;;;;32.73;44.12;100746.78;1872717;77;21028;-67
2021/06/27 09:22:27;;;;;;;6.53;3.00;;;;;;;32.30;44.64;100745.97;1872692;75;21169;-68
2021/06/27 09:24:58;;;;;;;10.13;3.25;;;;;;;32.21;45.26;100749.91;1872738;76;21028;-68
2021/06/27 09:27:27;;;;;;;7.93;3.43;;;;;;;32.53;45.33;100742.59;1859787;76;21056;-67
2021/06/27 09:29:57;;;;;;;5.45;3.17;;;;;;;32.42;44.92;100744.02;1872704;77;21020;-66
2021/06/27 09:32:26;;;;;;;7.20;3.10;;;;;;;32.81;44.90;100747.94;1871371;75;21091;-66
2021/06/27 09:34:55;;;;;;;7.20;3.37;;;;;;;32.86;44.22;100745.44;1872867;76;21032;-66
2021/06/27 09:37:31;;;;;;;6.10;3.12;;;;;;;32.72;44.08;100747.31;1872805;77;21053;-66
2021/06/27 09:40:05;;;;;;;8.15;3.27;;;;;;;32.00;44.66;100745.88;1872559;76;21055;-67
2021/06/27 09:42:33;;;;;;;7.03;3.40;;;;;;;31.65;45.72;100743.14;1872805;76;21049;-67
2021/06/27 09:45:04;;;;;;;10.65;3.67;;;;;;;31.40;46.90;100751.73;1872767;77;21035;-67
2021/06/27 09:47:33;;;;;;;8.98;3.55;;;;;;;30.96;47.88;100744.11;1871915;75;21546;-67
2021/06/27 09:50:10;;;;;;;6.20;2.90;;;;;;;30.81;48.26;100732.95;1872703;77;21459;-67
2021/06/27 09:52:41;;;;;;;9.53;3.77;;;;;;;30.62;48.09;100752.93;1861496;75;21048;-67
2021/06/27 09:55:14;;;;;;;8.80;3.67;;;;;;;31.08;48.25;100732.21;1872820;77;21068;-67
2021/06/27 09:57:42;;;;;;;;;;;;;;;31.27;47.77;100748.38;1875453;76;21020;-67
2021/06/27 10:00:32;;;;;;;8.75;3.62;;;;;;;31.34;46.76;100742.48;1872835;76;20150;-66
2021/06/27 10:03:07;;;;;;;8.73;3.80;;;;;;;30.92;47.81;100740.62;1872608;77;21090;-66
2021/06/27 10:05:36;;;;;;;8.13;3.22;;;;;;;31.01;48.02;100743.54;1872705;77;21156;-66
2021/06/27 10:08:05;;;;;;;6.90;3.20;;;;;;;31.30;48.14;100744.41;1872832;77;21076;-66
2021/06/27 10:10:34;;;;;;;6.97;3.10;;;;;;;31.42;46.50;100757.81;1872832;77;21102;-66
2021/06/27 10:13:03;;;;;;;10.58;2.80;;;;;;;31.37;46.67;100746.67;1872677;77;21533;-66
2021/06/27 10:15:47;;;;;;;6.70;2.90;;;;;;;30.95;47.28;100753.81;1873010;75;21138;-67
2021/06/27 10:18:16;;;;;;;6.58;2.92;;;;;;;30.85;47.61;100751.91;1872721;77;21121;-66
2021/06/27 10:20:45;;;;;;;8.05;3.58;;;;;;;30.77;46.00;100763.23;1872697;77;21095;-67
2021/06/27 10:23:14;;;;;;;5.05;2.75;;;;;;;30.85;45.89;100758.71;1872706;76;21048;-67
2021/06/27 10:25:44;;;;;;;9.85;3.15;;;;;;;30.77;45.07;100753.72;1872655;75;21060;-69
2021/06/27 10:28:13;;;;;;;5.90;3.08;;;;;;;30.79;45.67;100758.97;1885804;76;21145;-67
2021/06/27 10:30:42;;;;;;;5.58;2.75;;;;;;;30.65;46.23;100755.77;1891369;76;21075;-66
2021/06/27 10:33:11;;;;;;;4.55;3.00;;;;;;;30.72;45.60;100768.39;1891423;76;21063;-66
2021/06/27 10:35:42;;;;;;;8.15;2.62;;;;;;;30.71;45.69;100769.94;1891386;76;21478;-66
2021/06/27 10:38:11;;;;;;;5.20;2.80;;;;;;;30.67;45.89;100765.40;1890917;75;21054;-66
2021/06/27 10:40:54;;;;;;;3.65;2.52;;;;;;;30.67;45.12;100765.40;1891323;75;22196;-66
2021/06/27 10:43:25;;;;;;;9.03;3.25;;;;;;;30.65;46.13;100751.69;1891375;76;21031;-66
2021/06/27 10:45:56;;;;;;;9.03;3.12;;;;;;;30.66;47.30;100764.26;1891440;76;21105;-66
2021/06/27 10:48:37;;;;;;;8.40;3.75;;;;;;;30.50;48.15;100760.71;1891791;76;21011;-66
2021/06/27 10:51:12;;;;;;;9.60;3.70;;;;;;;30.11;48.97;100766.45;1891602;76;21466;-68
2021/06/27 10:54:13;;;;;;;9.10;2.70;;;;;;;30.08;49.02;100755.43;1891403;76;21019;-66
2021/06/27 10:57:09;;;;;;;9.48;3.20;;;;;;;30.21;49.37;100766.98;1890867;75;21489;-66
2021/06/27 10:59:54;;;;;;;9.78;3.70;;;;;;;30.17;49.37;100762.97;1891457;75;21418;-66
2021/06/27 11:02:40;;;;;;;7.83;3.55;;;;;;;30.22;49.22;100762.73;1889844;75;21016;-66
2021/06/27 11:05:36;;;;;;;9.98;3.47;;;;;;;30.10;49.93;100759.32;1891417;76;21059;-66
2021/06/27 11:08:02;;;;;;;7.90;3.30;;;;;;;30.05;50.30;100759.06;1884156;75;21501;-66
2021/06/27 11:10:32;;;;;;;6.78;3.62;;;;;;;30.03;50.33;100757.37;1891487;76;21031;-66
2021/06/27 11:13:07;;;;;;;9.93;3.42;;;;;;;30.07;49.80;100748.33;1891482;76;21015;-66
2021/06/27 11:15:38;;;;;;;6.08;3.60;;;;;;;29.79;50.36;100764.44;1891390;76;21079;-66
2021/06/27 11:18:09;;;;;;;7.12;3.17;;;;;;;29.73;50.90;100766.48;1891343;75;21118;-66
2021/06/27 11:20:49;;;;;;;7.92;3.42;;;;;;;29.71;50.52;100761.23;1887749;75;21497;-66
2021/06/27 11:23:19;;;;;;;9.78;3.75;;;;;;;29.87;50.10;100758.91;1868585;75;21071;-66
2021/06/27 11:25:49;;;;;;;8.15;3.52;;;;;;;29.79;49.75;100751.70;1891412;76;21493;-66
2021/06/27 11:28:23;;;;;;;8.23;3.27;;;;;;;29.76;50.38;100751.22;1891180;75;21591;-66
2021/06/27 11:30:55;;;;;;;11.15;3.60;;;;;;;29.83;49.96;100757.59;1891431;76;21133;-66
2021/06/27 11:33:26;;;;;;;7.58;2.95;;;;;;;29.75;50.14;100744.09;1888411;76;21145;-66
2021/06/27 11:35:59;;;;;;;7.65;3.17;;;;;;;29.61;50.36;100751.17;1891376;76;21067;-66